^^
Datos históricos de la estación: Murcia-Puente Tocinos
Diario Informe para Septiembre 3, 2019 Unidades:  Ingés    Métrico   Ambas
Diario Semanal Mensual Anual
  Máxima: Mínima: Promedio:
Temperatura: 87.8 °F 65.7 °F 74.5 °F
Punto de rocio: 63.7 °F 45.1 °F 51.3 °F
Humedad: 78% 23% 47%
Velocidad viento: 10mph 0mph 4.5mph
Racha viento: 20mph - -
Viento- - SO
Presión: 30 in 29.9 in -
Precipitación: 0 in    
 
 
Tabla de datos para Septiembre 3, 2019
Hora Temperatura Punto de rocio Presión Viento Velocidad viento Racha viento Humedad Intensidad lluvia(por hora) Nubes
00:04 71.4 °F 63.5 °F 30 in OSO 1.4 mph 3.6 mph 76% 0 in
00:09 71.2 °F 63.7 °F 30 in OSO 1.4 mph 4 mph 76.7% 0 in
00:14 71.2 °F 63.7 °F 30 in SO 1.8 mph 4 mph 77% 0 in
00:19 71.2 °F 63.7 °F 30 in SO 1.6 mph 2.3 mph 77% 0 in
00:24 71.2 °F 63.7 °F 30 in Calm   2.3 mph 77% 0 in
00:29 71.1 °F 63.1 °F 30 in Calm   2.9 mph 76.3% 0 in
00:34 71.1 °F 62.6 °F 30 in Calm   3 mph 74.6% 0 in
00:39 70.9 °F 62.8 °F 30 in Sur 0.2 mph 2.4 mph 75.4% 0 in
00:44 70.7 °F 61 °F 30 in Sur 1.4 mph 5.2 mph 71.5% 0 in
00:49 70.5 °F 59.9 °F 30 in Sur 1.4 mph 5 mph 69% 0 in
00:54 70.5 °F 60.3 °F 30 in SSO 2 mph 5 mph 70% 0 in
00:59 70.5 °F 61.7 °F 30 in NNE 2 mph 4 mph 73.6% 0 in
01:04 70.3 °F 61.7 °F 30 in NNE 2 mph 4 mph 74% 0 in
01:09 70.2 °F 62.2 °F 30 in NO 2 mph 3.5 mph 75.9% 0 in
01:14 70 °F 62.6 °F 30 in NO 1.8 mph 3.6 mph 77.5% 0 in
01:19 70 °F 62.8 °F 30 in NE 1.8 mph 4 mph 78% 0 in
01:24 69.8 °F 62.6 °F 30 in Este 1.8 mph 3.5 mph 77.9% 0 in
01:29 69.4 °F 61.2 °F 30 in Sur 1.8 mph 3.1 mph 74.7% 0 in
01:34 69.4 °F 60.4 °F 30 in Sur 1.8 mph 3.6 mph 73% 0 in
01:39 69.3 °F 57.7 °F 30 in Sur 1.9 mph 5.2 mph 66.9% 0 in
01:44 69.3 °F 57.4 °F 30 in Sur 2.9 mph 5.9 mph 66% 0 in
01:49 69.3 °F 57.2 °F 30 in SSO 3 mph 6.9 mph 65.6% 0 in
01:54 69.4 °F 57 °F 30 in SSO 4.3 mph 7 mph 64.6% 0 in
01:59 69.4 °F 56.1 °F 30 in SSE 4.3 mph 7.4 mph 62.6% 0 in
02:04 69.3 °F 55.2 °F 30 in SSE 4.3 mph 8.1 mph 61% 0 in
02:09 68.7 °F 54.3 °F 30 in SSE 4.4 mph 9.2 mph 60.2% 0 in
02:14 68.4 °F 54 °F 30 in SSE 5.4 mph 9.2 mph 60% 0 in
02:19 68.2 °F 53.8 °F 30 in Sur 5.3 mph 9 mph 60% 0 in
02:24 68.2 °F 53.1 °F 30 in SSO 4.7 mph 7 mph 58.6% 0 in
02:29 68.4 °F 52.9 °F 30 in SSO 4.7 mph 7 mph 58% 0 in
02:34 68.5 °F 53.1 °F 30 in SSO 4.3 mph 6 mph 58% 0 in
02:39 68.5 °F 53.2 °F 30 in SSO 4.2 mph 5.8 mph 58% 0 in
02:44 68.7 °F 53.4 °F 30 in SO 3.1 mph 6.2 mph 58.3% 0 in
02:49 68.7 °F 53.6 °F 30 in OSO 3.1 mph 6 mph 58.3% 0 in
02:54 68.7 °F 53.4 °F 30 in OSO 3.1 mph 6 mph 58% 0 in
02:59 68.7 °F 52.7 °F 30 in SO 3.2 mph 6 mph 56.7% 0 in
03:04 68.7 °F 51.8 °F 30 in SSO 3.6 mph 6 mph 54.8% 0 in
03:09 68.7 °F 51.1 °F 30 in SSO 3.7 mph 7.4 mph 53.2% 0 in
03:14 68.9 °F 50.5 °F 30 in SSO 4 mph 7.4 mph 52.1% 0 in
03:19 68.9 °F 50.5 °F 30 in SO 4 mph 7 mph 52% 0 in
03:24 68.9 °F 50.7 °F 30 in SO 4.3 mph 6.9 mph 52.3% 0 in
03:29 68.7 °F 50.9 °F 30 in SSO 4.3 mph 7 mph 53% 0 in
03:34 68.7 °F 50.9 °F 30 in SSO 4 mph 6 mph 53% 0 in
03:39 68.7 °F 50.9 °F 30 in SSO 4 mph 6.2 mph 53% 0 in
03:44 68.7 °F 51.4 °F 30 in SSO 3.6 mph 6.9 mph 54% 0 in
03:49 68.7 °F 51.4 °F 30 in SSO 3.7 mph 7 mph 54% 0 in
03:54 68.7 °F 51.8 °F 30 in SSO 4.7 mph 7 mph 54.8% 0 in
03:59 68.7 °F 52.3 °F 30 in SSO 4.7 mph 7 mph 56% 0 in
04:04 68.7 °F 52.7 °F 30 in SO 4.7 mph 7 mph 56.7% 0 in
04:09 68.7 °F 53.8 °F 30 in SO 4.6 mph 6.2 mph 59.1% 0 in
04:14 68.5 °F 54.5 °F 30 in SSO 4 mph 6.9 mph 60.8% 0 in
04:19 68.4 °F 54.5 °F 30 in SSO 4.1 mph 8.1 mph 61.2% 0 in
04:24 68.4 °F 54.3 °F 30 in SO 4.7 mph 8 mph 60.7% 0 in
04:29 68.4 °F 53.6 °F 30 in SSO 4.6 mph 6.9 mph 59% 0 in
04:34 68.5 °F 52.2 °F 30 in SSO 4 mph 7 mph 55.9% 0 in
04:39 68.9 °F 49.6 °F 30 in SO 4.1 mph 7.4 mph 50.4% 0 in
04:44 69.3 °F 49.6 °F 30 in SSO 4.7 mph 7.4 mph 49.9% 0 in
04:49 69.1 °F 49.8 °F 30 in SO 4.6 mph 7 mph 50.3% 0 in
04:54 68.9 °F 48.4 °F 30 in SO 3.6 mph 6.2 mph 47.9% 0 in
04:59 68.9 °F 48 °F 30 in SO 3.7 mph 7.4 mph 47.4% 0 in
05:04 69.1 °F 47.7 °F 30 in OSO 4 mph 10.4 mph 46.3% 0 in
05:09 69.3 °F 47.7 °F 30 in SO 4.2 mph 10 mph 46% 0 in
05:14 69.4 °F 48.2 °F 30 in SO 5.2 mph 9.2 mph 46.7% 0 in
05:19 69.4 °F 48.2 °F 30 in SO 5.2 mph 9 mph 46.7% 0 in
05:24 69.3 °F 46.4 °F 30 in OSO 5.2 mph 11.5 mph 43.9% 0 in
05:29 69.3 °F 45.5 °F 30 in OSO 5.3 mph 12 mph 42.5% 0 in
05:34 69.4 °F 45.3 °F 30 in OSO 6.4 mph 12 mph 42.1% 0 in
05:39 69.3 °F 45.9 °F 30 in OSO 6.2 mph 9 mph 43% 0 in
05:44 69.3 °F 47.1 °F 30 in SO 4.7 mph 8 mph 45.3% 0 in
05:49 69.1 °F 50 °F 30 in SSO 4.5 mph 6 mph 50.9% 0 in
05:54 68.5 °F 50.2 °F 30 in OSO 3.1 mph 6.2 mph 52% 0 in
05:59 68.2 °F 49.6 °F 30 in SO 3.2 mph 6 mph 51.4% 0 in
06:04 67.8 °F 50 °F 30 in SO 3.6 mph 6 mph 52.8% 0 in
06:09 67.6 °F 51.1 °F 30 in SSO 3.5 mph 5 mph 55% 0 in
06:14 67.6 °F 50.5 °F 30 in SO 2.9 mph 5.9 mph 54.5% 0 in
06:19 67.5 °F 49.1 °F 30 in SSO 3 mph 8.5 mph 51.9% 0 in
06:24 67.3 °F 48.6 °F 30 in SO 4 mph 9 mph 51.2% 0 in
06:29 67.3 °F 48.6 °F 30 in SO 3.9 mph 6 mph 51% 0 in
06:34 67.3 °F 48.7 °F 30 in OSO 3.1 mph 5 mph 51.4% 0 in
06:39 67.3 °F 48.9 °F 30 in OSO 3 mph 5 mph 52% 0 in
06:44 67.1 °F 48.9 °F 30 in SO 2.4 mph 4.6 mph 52% 0 in
06:49 67.1 °F 49.1 °F 30 in OSO 2.4 mph 5 mph 52.2% 0 in
06:54 66.9 °F 49.6 °F 30 in OSO 2.4 mph 5 mph 53.8% 0 in
06:59 66.7 °F 50 °F 30 in OSO 2.4 mph 5 mph 54.8% 0 in
07:04 66.6 °F 50.2 °F 30 in SO 2 mph 5.4 mph 55.7% 0 in
07:09 66.4 °F 49.5 °F 30 in OSO 2.2 mph 6 mph 54.5% 0 in
07:14 66.4 °F 49.1 °F 30 in OSO 3.6 mph 8.1 mph 53.8% 0 in
07:19 66.4 °F 49.3 °F 30 in OSO 3.5 mph 8 mph 54.1% 0 in
07:24 66 °F 48.9 °F 30 in SO 3.1 mph 6 mph 54% 0 in
07:29 66 °F 48.9 °F 30 in SO 3.1 mph 5.8 mph 54% 0 in
07:34 66 °F 48.9 °F 30 in SO 3.1 mph 6 mph 54% 0 in
07:39 66 °F 48.9 °F 30 in OSO 3.1 mph 5.2 mph 54% 0 in
07:44 66 °F 48.9 °F 30 in SO 3.1 mph 6.9 mph 54% 0 in
07:49 65.8 °F 48.7 °F 30 in SO 3.2 mph 8.1 mph 54% 0 in
07:54 65.8 °F 48.7 °F 30 in OSO 4.3 mph 8 mph 53.9% 0 in
07:59 65.8 °F 48.2 °F 30 in SO 4.2 mph 7 mph 53.1% 0 in
08:04 65.8 °F 48.2 °F 30 in OSO 3.6 mph 5 mph 53% 0 in
08:09 65.8 °F 48.2 °F 30 in SO 3.5 mph 5.2 mph 53% 0 in
08:14 66 °F 48 °F 30 in SSO 2.9 mph 5 mph 52.3% 0 in
08:19 66 °F 47.1 °F 30 in SSO 2.9 mph 5.8 mph 50.5% 0 in
08:24 66.4 °F 47.1 °F 30 in SSO 3.1 mph 6 mph 50% 0 in
08:29 66.4 °F 47.1 °F 30 in SO 3 mph 5 mph 50% 0 in
08:34 66.6 °F 47.7 °F 30 in OSO 2.9 mph 5 mph 50.6% 0 in
08:39 66.6 °F 48 °F 30 in Oeste 2.9 mph 5 mph 51.3% 0 in
08:44 66.2 °F 48 °F 30 in Oeste 2.4 mph 6.2 mph 52% 0 in
08:49 65.8 °F 48 °F 30 in Oeste 2.5 mph 6 mph 52.8% 0 in
08:54 65.7 °F 48 °F 30 in Oeste 3.6 mph 6.2 mph 53% 0 in
08:59 65.7 °F 48.2 °F 30 in OSO 3.7 mph 7.4 mph 53% 0 in
09:04 65.8 °F 48.2 °F 30 in OSO 4 mph 7 mph 53% 0 in
09:09 66 °F 48 °F 30 in SO 3.9 mph 6 mph 52.3% 0 in
09:14 66.4 °F 48 °F 30 in SO 2.4 mph 5 mph 51.7% 0 in
09:19 66.6 °F 47.8 °F 30 in SO 2.5 mph 5.9 mph 51% 0 in
09:24 66.7 °F 48 °F 30 in OSO 3.1 mph 6 mph 51% 0 in
09:29 67.1 °F 48.2 °F 30 in OSO 3.1 mph 5 mph 50.5% 0 in
09:34 67.5 °F 48.2 °F 30 in OSO 2.9 mph 5 mph 49.8% 0 in
09:39 68 °F 48.2 °F 30 in OSO 2.9 mph 5.2 mph 49.1% 0 in
09:44 68.4 °F 47.8 °F 30 in OSO 2.9 mph 8.1 mph 47.7% 0 in
09:49 68.7 °F 47.5 °F 30 in OSO 3 mph 8.1 mph 46.6% 0 in
09:54 69.1 °F 46.9 °F 30 in OSO 3.6 mph 8.1 mph 45.3% 0 in
09:59 69.1 °F 47.5 °F 30 in Oeste 3.9 mph 8 mph 46% 0 in
10:04 69.3 °F 47.7 °F 30 in Oeste 5.2 mph 7 mph 46% 0 in
10:09 69.3 °F 47.7 °F 30 in Oeste 5 mph 7 mph 46% 0 in
10:14 69.6 °F 47.8 °F 30 in Oeste 4 mph 6 mph 46% 0 in
10:19 70 °F 47.7 °F 30 in OSO 3.9 mph 5.9 mph 44.9% 0 in
10:24 70.3 °F 47.1 °F 30 in Oeste 3.1 mph 6.4 mph 43.5% 0 in
10:29 70.9 °F 46.8 °F 30 in Oeste 3.2 mph 7.4 mph 42.3% 0 in
10:34 71.1 °F 47.3 °F 30 in Oeste 4.3 mph 7.4 mph 42.6% 0 in
10:39 71.2 °F 47.1 °F 30 in OSO 4.3 mph 7.4 mph 42% 0 in
10:44 71.6 °F 47.3 °F 30 in Oeste 4.3 mph 7 mph 42.1% 0 in
10:49 72 °F 47.8 °F 30 in SO 4.2 mph 6 mph 42.4% 0 in
10:54 72.3 °F 47.7 °F 30 in OSO 3.1 mph 8.1 mph 41.4% 0 in
10:59 72.5 °F 47.5 °F 30 in OSO 3.2 mph 8 mph 41% 0 in
11:04 72.9 °F 47.8 °F 30 in SSO 4 mph 8.7 mph 41% 0 in
11:09 73 °F 47.5 °F 30 in SO 4.1 mph 9.2 mph 40.3% 0 in
11:14 73 °F 47.8 °F 30 in SO 4.7 mph 9 mph 40.8% 0 in
11:19 73.4 °F 48.4 °F 30 in SSO 4.6 mph 7 mph 41.3% 0 in
11:24 73.9 °F 47.5 °F 30 in SSO 4 mph 9.2 mph 39.2% 0 in
11:29 74.1 °F 47.3 °F 30 in SSO 4.2 mph 9 mph 38.5% 0 in
11:34 74.3 °F 48 °F 30 in SO 5.2 mph 8.1 mph 39.3% 0 in
11:39 74.7 °F 48.2 °F 30 in OSO 5.1 mph 8.1 mph 39% 0 in
11:44 74.8 °F 48.2 °F 30 in OSO 4.3 mph 8 mph 39% 0 in
11:49 75 °F 48.6 °F 30 in OSO 4.3 mph 7.6 mph 39.2% 0 in
11:54 75.4 °F 48.6 °F 30 in OSO 4 mph 10.4 mph 38.7% 0 in
11:59 75.6 °F 48.4 °F 30 in OSO 4.3 mph 10 mph 38.4% 0 in
12:04 75.7 °F 48.7 °F 30 in SO 5.9 mph 9.7 mph 38.6% 0 in
12:09 76.3 °F 48.2 °F 30 in SO 5.8 mph 10.4 mph 37.2% 0 in
12:14 76.6 °F 48.4 °F 30 in SO 5.2 mph 12.3 mph 37% 0 in
12:19 76.6 °F 48.4 °F 30 in SO 5.3 mph 13 mph 37.1% 0 in
12:24 76.8 °F 48.6 °F 30 in OSO 6.2 mph 10.4 mph 36.9% 0 in
12:29 77.2 °F 48.7 °F 30 in OSO 6.2 mph 12.5 mph 36.7% 0 in
12:34 77.7 °F 47.1 °F 30 in Oeste 6.2 mph 13.8 mph 34.1% 0 in
12:39 78.1 °F 46.8 °F 30 in Oeste 6.4 mph 14 mph 33.3% 0 in
12:44 78.3 °F 46.8 °F 30 in ONO 8.1 mph 14 mph 33% 0 in
12:49 78.3 °F 46.8 °F 30 in Oeste 8 mph 13.7 mph 33% 0 in
12:54 78.4 °F 47.3 °F 30 in Oeste 6.9 mph 14 mph 33.3% 0 in
12:59 79 °F 47.5 °F 30 in Oeste 6.8 mph 14 mph 33.2% 0 in
13:04 79 °F 47.1 °F 30 in ONO 6.2 mph 13.8 mph 32.7% 0 in
13:09 79.3 °F 46.9 °F 30 in NO 6.5 mph 17.3 mph 32% 0 in
13:14 79.3 °F 46.6 °F 30 in NO 8.7 mph 18.5 mph 31.6% 0 in
13:19 79.3 °F 46.6 °F 30 in NO 8.8 mph 19 mph 31.5% 0 in
13:24 79.7 °F 46.8 °F 30 in ONO 9.2 mph 16.1 mph 31.6% 0 in
13:29 79.9 °F 46.8 °F 30 in ONO 9.1 mph 17 mph 31.3% 0 in
13:34 79.9 °F 46.6 °F 30 in ONO 8.7 mph 17.5 mph 31% 0 in
13:39 79.9 °F 46.8 °F 30 in ONO 8.9 mph 17.5 mph 31.4% 0 in
13:44 80.1 °F 46.9 °F 30 in ONO 10 mph 17 mph 31.3% 0 in
13:49 80.4 °F 46.9 °F 30 in ONO 9.9 mph 17 mph 31% 0 in
13:54 80.8 °F 47.1 °F 30 in ONO 8.7 mph 17.3 mph 30.8% 0 in
13:59 81 °F 47.1 °F 30 in NO 8.7 mph 14 mph 30.6% 0 in
14:04 81.1 °F 47.3 °F 30 in NO 8.7 mph 15.9 mph 30.5% 0 in
14:09 81.7 °F 47.3 °F 30 in NO 8.6 mph 16.1 mph 30.2% 0 in
14:14 81.7 °F 47.3 °F 30 in NO 7.6 mph 15.6 mph 30% 0 in
14:19 81.9 °F 46.9 °F 30 in ONO 7.8 mph 17.5 mph 29.5% 0 in
14:24 82 °F 46.9 °F 30 in NO 9.2 mph 17.3 mph 29.2% 0 in
14:29 82.4 °F 46.9 °F 30 in ONO 9.1 mph 17.3 mph 29% 0 in
14:34 82.8 °F 46.6 °F 30 in ONO 8.7 mph 19.7 mph 28.4% 0 in
14:39 82.8 °F 46.4 °F 30 in ONO 8.9 mph 20 mph 28% 0 in
14:44 82.8 °F 46.4 °F 30 in NO 10 mph 19.7 mph 28% 0 in
14:49 82.9 °F 46.6 °F 30 in NO 9.9 mph 20 mph 28.1% 0 in
14:54 83.3 °F 46.8 °F 30 in ONO 9.7 mph 20 mph 28% 0 in
14:59 83.5 °F 46.4 °F 30 in Oeste 9.5 mph 17.3 mph 27.5% 0 in
15:04 83.5 °F 46 °F 30 in ONO 8.5 mph 17 mph 27% 0 in
15:09 83.7 °F 46 °F 30 in ONO 8.6 mph 17.8 mph 27% 0 in
15:14 83.8 °F 46.2 °F 30 in ONO 9.7 mph 18.4 mph 27% 0 in
15:19 83.8 °F 46.2 °F 30 in ONO 9.5 mph 18 mph 27% 0 in
15:24 84.2 °F 46 °F 30 in ONO 8.5 mph 17.3 mph 26.5% 0 in
15:29 84.4 °F 45.7 °F 29.9 in ONO 8.5 mph 16 mph 26% 0 in
15:34 84.4 °F 45.7 °F 29.9 in ONO 8.5 mph 17.3 mph 26% 0 in
15:39 84.4 °F 45.9 °F 29.9 in Oeste 8.5 mph 17 mph 26.1% 0 in
15:44 84.6 °F 45.7 °F 29.9 in ONO 8.7 mph 16 mph 25.7% 0 in
15:49 84.7 °F 45.5 °F 29.9 in ONO 8.4 mph 13.8 mph 25.5% 0 in
15:54 84.9 °F 45.1 °F 29.9 in Oeste 6.4 mph 14 mph 25% 0 in
15:59 84.9 °F 45.1 °F 29.9 in ONO 6.6 mph 13.8 mph 25% 0 in
16:04 84.7 °F 45.3 °F 29.9 in Oeste 7.4 mph 14 mph 25.3% 0 in
16:09 84.9 °F 45.1 °F 29.9 in ONO 7.3 mph 15 mph 25% 0 in
16:14 85.5 °F 45.5 °F 29.9 in Oeste 6.2 mph 15 mph 25% 0 in
16:19 85.6 °F 45.9 °F 29.9 in OSO 6.1 mph 13.5 mph 25% 0 in
16:24 86 °F 46 °F 29.9 in ONO 5.4 mph 14 mph 25.1% 0 in
16:29 85.8 °F 46.2 °F 29.9 in ONO 5.7 mph 14 mph 25.4% 0 in
16:34 86 °F 46.4 °F 29.9 in OSO 7.4 mph 12 mph 25.2% 0 in
16:39 86.4 °F 46.4 °F 29.9 in OSO 7.2 mph 12 mph 25% 0 in
16:44 86.4 °F 45.9 °F 29.9 in NO 5.9 mph 10.7 mph 24.5% 0 in
16:49 86.4 °F 46 °F 29.9 in ONO 5.8 mph 11 mph 24.6% 0 in
16:54 86.4 °F 46.4 °F 29.9 in ONO 5.4 mph 12.7 mph 25% 0 in
16:59 86.5 °F 46.4 °F 29.9 in Oeste 5.7 mph 15 mph 24.8% 0 in
17:04 86.7 °F 45.9 °F 29.9 in Oeste 6.9 mph 16.1 mph 24.3% 0 in
17:09 86.7 °F 45.9 °F 29.9 in Oeste 7 mph 16 mph 24.2% 0 in
17:14 86.7 °F 45.5 °F 29.9 in ONO 7.4 mph 12 mph 24% 0 in
17:19 86.7 °F 45.7 °F 29.9 in Oeste 7.3 mph 12.7 mph 24.1% 0 in
17:24 86.7 °F 45.7 °F 29.9 in ONO 6.9 mph 13 mph 24% 0 in
17:29 86.9 °F 46.4 °F 29.9 in Oeste 6.8 mph 13 mph 24.6% 0 in
17:34 87.3 °F 46.2 °F 29.9 in Oeste 5.9 mph 10 mph 24.1% 0 in
17:39 87.4 °F 45.9 °F 29.9 in OSO 5.7 mph 9 mph 23.7% 0 in
17:44 87.8 °F 45.9 °F 29.9 in OSO 4 mph 7 mph 23.5% 0 in
17:49 87.8 °F 45.5 °F 29.9 in SO 4 mph 9.2 mph 23% 0 in
17:54 87.6 °F 45.9 °F 29.9 in SO 4.3 mph 9 mph 23.6% 0 in
17:59 87.6 °F 45.9 °F 29.9 in OSO 4.2 mph 7 mph 23.5% 0 in
18:04 87.8 °F 46.6 °F 29.9 in Sur 3.6 mph 8.1 mph 24% 0 in
18:09 87.4 °F 46.4 °F 29.9 in SSE 3.8 mph 8.1 mph 24.1% 0 in
18:14 87.1 °F 46.9 °F 29.9 in SE 5.2 mph 8.1 mph 25% 0 in
18:19 86.5 °F 46.9 °F 29.9 in SE 5.2 mph 8.1 mph 25.3% 0 in
18:24 86.5 °F 47.7 °F 29.9 in SSE 5.2 mph 8 mph 26% 0 in
18:29 86.5 °F 47.7 °F 29.9 in SSO 5.2 mph 9.2 mph 26% 0 in
18:34 86 °F 49.8 °F 29.9 in Sur 4.7 mph 14.5 mph 28.7% 0 in
18:39 84.9 °F 50.5 °F 29.9 in Sur 5.1 mph 15 mph 30.6% 0 in
18:44 84.2 °F 50.9 °F 29.9 in Sur 8.1 mph 14 mph 31.6% 0 in
18:49 84 °F 50.9 °F 29.9 in SSO 8.1 mph 13 mph 32% 0 in
18:54 83.8 °F 50.7 °F 29.9 in SSO 8.1 mph 16.1 mph 32% 0 in
18:59 83.5 °F 50.4 °F 29.9 in SSO 8.2 mph 16.1 mph 32% 0 in
19:04 82.9 °F 50.2 °F 29.9 in SSO 8.7 mph 16 mph 32% 0 in
19:09 82.9 °F 50.7 °F 29.9 in SO 8.6 mph 13 mph 32.9% 0 in
19:14 82.8 °F 51.1 °F 29.9 in SSO 7.6 mph 13.8 mph 33.6% 0 in
19:19 82.6 °F 51.4 °F 29.9 in SSO 7.4 mph 14 mph 34% 0 in
19:24 82.6 °F 51.4 °F 29.9 in Sur 5.9 mph 9 mph 34.1% 0 in
19:29 82.4 °F 51.8 °F 29.9 in Sur 5.7 mph 7.4 mph 34.7% 0 in
19:34 82 °F 51.6 °F 29.9 in SSO 4 mph 7 mph 34.9% 0 in
19:39 81.9 °F 51.4 °F 29.9 in SO 3.9 mph 6 mph 35% 0 in
19:44 81.7 °F 51.6 °F 29.9 in SO 2.9 mph 3.6 mph 35.4% 0 in
19:49 81.3 °F 51.6 °F 29.9 in NNO 2.8 mph 4.6 mph 35.7% 0 in
19:54 81 °F 51.6 °F 29.9 in NNO 2 mph 5.9 mph 36.1% 0 in
19:59 80.2 °F 51.8 °F 29.9 in ONO 2.1 mph 6 mph 37.2% 0 in
20:04 79.9 °F 52 °F 29.9 in Oeste 2.9 mph 6.2 mph 38% 0 in
20:09 79.3 °F 52.3 °F 29.9 in Oeste 2.8 mph 6 mph 39% 0 in
20:14 79.2 °F 52.2 °F 29.9 in ONO 2 mph 5 mph 39% 0 in
20:19 79.2 °F 52.5 °F 29.9 in ONO 2.1 mph 4.7 mph 39.7% 0 in
20:24 79 °F 52.7 °F 29.9 in NO 2.4 mph 5 mph 40% 0 in
20:29 78.6 °F 52.7 °F 29.9 in North 2.4 mph 5 mph 40.6% 0 in
20:34 78.1 °F 54 °F 30 in NNE 2.9 mph 7.4 mph 43.1% 0 in
20:39 77.4 °F 55 °F 30 in NNE 3.1 mph 8.1 mph 46% 0 in
20:44 76.6 °F 56.7 °F 30 in North 4.7 mph 8 mph 50.1% 0 in
20:49 76.1 °F 57.4 °F 30 in NO 4.7 mph 8.5 mph 52.6% 0 in
20:54 75.4 °F 58.8 °F 30 in NNE 4.3 mph 10.7 mph 56.6% 0 in
20:59 74.8 °F 59.4 °F 30 in NNE 4.5 mph 11 mph 58.4% 0 in
21:04 74.7 °F 59.7 °F 30 in NNE 5.9 mph 7.4 mph 59.7% 0 in
21:09 74.5 °F 59.7 °F 30 in NE 5.6 mph 7 mph 60% 0 in
21:14 74.5 °F 59.7 °F 30 in NE 3.1 mph 8.5 mph 60.2% 0 in
21:19 74.1 °F 59.9 °F 30 in NE 3.2 mph 9 mph 61% 0 in
21:24 74.1 °F 59.9 °F 30 in NNE 4 mph 6 mph 61.3% 0 in
21:29 73.8 °F 60.1 °F 30 in NNE 3.9 mph 5.2 mph 62% 0 in
21:34 73.8 °F 60.3 °F 30 in NNE 3.1 mph 5 mph 62.9% 0 in
21:39 73.4 °F 60.3 °F 30 in North 3 mph 5.4 mph 63.5% 0 in
21:44 73 °F 60.3 °F 30 in North 2.9 mph 6 mph 64% 0 in
21:49 72.9 °F 60.4 °F 30 in North 2.9 mph 6 mph 64.9% 0 in
21:54 72.9 °F 60.3 °F 30 in NE 2.9 mph 6.2 mph 65% 0 in
21:59 72.7 °F 60.3 °F 30 in ENE 2.9 mph 6 mph 65.3% 0 in
22:04 72.5 °F 60.4 °F 30 in NNE 3.1 mph 5 mph 66% 0 in
22:09 72.3 °F 60.3 °F 30 in North 3 mph 5 mph 66% 0 in
22:14 72.1 °F 60.3 °F 30 in North 2.4 mph 5 mph 66% 0 in
22:19 72.1 °F 60.3 °F 30 in NNO 2.3 mph 4.6 mph 66.1% 0 in
22:24 72 °F 60.4 °F 30 in North 1.8 mph 5.8 mph 67% 0 in
22:29 72 °F 60.3 °F 30 in NNE 1.9 mph 6 mph 67% 0 in
22:34 71.8 °F 60.3 °F 30 in NE 2.9 mph 5.2 mph 67% 0 in
22:39 71.6 °F 60.1 °F 30 in NE 2.8 mph 5 mph 67% 0 in
22:44 71.4 °F 59.9 °F 30 in NE 2.4 mph 5 mph 67% 0 in
22:49 71.4 °F 59.9 °F 30 in ESE 2.3 mph 3.6 mph 66.8% 0 in
22:54 71.4 °F 59.5 °F 30 in ESE 1.4 mph 4 mph 66.1% 0 in
22:59 71.4 °F 59.9 °F 30 in North 1.5 mph 3.5 mph 67% 0 in
23:04 71.4 °F 59.9 °F 30 in NO 1.8 mph 3 mph 67% 0 in
23:09 71.2 °F 59.9 °F 30 in NNO 1.8 mph 4.6 mph 67.3% 0 in
23:14 71.1 °F 59.5 °F 30 in Este 1.8 mph 5.2 mph 66.7% 0 in
23:19 70.9 °F 58.3 °F 30 in ESE 1.9 mph 5 mph 64.4% 0 in
23:24 70.5 °F 57.4 °F 30 in ESE 2.9 mph 4 mph 63% 0 in
23:29 70.5 °F 57.2 °F 30 in ESE 2.7 mph 3.6 mph 62.8% 0 in
23:34 70.5 °F 57.4 °F 30 in SSE 1.4 mph 4.6 mph 63.1% 0 in
23:39 70.5 °F 58.3 °F 30 in Sur 1.6 mph 5.2 mph 64.9% 0 in
23:44 70.7 °F 58.8 °F 30 in Sur 2.9 mph 5.8 mph 66% 0 in
23:49 70.7 °F 58.5 °F 30 in Sur 2.9 mph 6 mph 65.2% 0 in
23:54 70.9 °F 58.5 °F 30 in OSO 3.1 mph 5 mph 65% 0 in
23:59 70.9 °F 58.5 °F 30 in SO 3 mph 5 mph 65% 0 in
Murcia-Puente Tocinos, España
Compliments of Weather Underground - 2.75 mb

La estación de MeteoMurcia.com, publica sus datos en los siguientes proyectos:

Weather Underground PWS IMURCIAP2 Meteoclimatic www.awekas.at

W3Counter
Web Analytics